Danese, West Virginia
Current Conditions -  °F | °C
As of 6:51 PM on Thursday 18 Dec 2014 (Local Time) from KBKW Reporting Station
Overcast Overcast  
Wind Chill: 30°   Ceiling: 9500
Heat Index: 30°   Visibility: 10mi
Dew Point: 22°   Wind: 3mph
Humidity: 72%   Direction: 310°NW
Pressure: 30.09"   Gusts: NA
Location:  37.93°N, 80.91°W
Report Text: KBKW 182351Z AUTO 31003KT 10SM OVC095 M01/M06 A3009 RMK AO2 SLP222 T10111056 10022 21011 50001
Loading
Personal Weather Stations






























Interactive Weather Map New forecast layout! Learn more

10-Day Weather Forecast

Advertisements
Track Severe Weather on mobile